This is the latest recevied weather packets stored in our database for station/object DJ3AN. If no packets are shown the sender has not sent any weather packets the latest 1 day(s).
| Time | Temp. | Humidity | Pressure | Rain* | Wind** | Luminosity | Snow |
|---|---|---|---|---|---|---|---|
| 1778046305 | 10.56° C | 81% | 1007.4 hPa | 0 mm | - | - | - |
| 1778046005 | 10.56° C | 83% | 1007.4 hPa | 0 mm | - | - | - |
| 1778043906 | 10.56° C | 83% | 1007.4 hPa | 0 mm | - | - | - |
| 1778043606 | 10.56° C | 83% | 1007.4 hPa | 0 mm | - | - | - |
| 1778043306 | 10.56° C | 82% | 1007.5 hPa | 0 mm | - | - | - |
| 1778042705 | 10.56° C | 82% | 1007.5 hPa | 0 mm | - | - | - |
| 1778042405 | 10.56° C | 82% | 1007.5 hPa | 0 mm | - | - | - |
| 1778041505 | 10.56° C | 81% | 1007.6 hPa | 0 mm | - | - | - |
| 1778040305 | 10.56° C | 79% | 1007.5 hPa | 0 mm | - | - | - |
| 1778039406 | 10.56° C | 78% | 1007.4 hPa | 0 mm | - | - | - |
| 1778037905 | 10.56° C | 78% | 1007.5 hPa | 0 mm | - | - | - |
| 1778034306 | 11.11° C | 79% | 1007.9 hPa | 0 mm | - | - | - |
| 1778034006 | 11.11° C | 80% | 1007.9 hPa | 0 mm | - | - | - |
| 1778033706 | 11.11° C | 81% | 1008 hPa | 0 mm | - | - | - |
| 1778033106 | 11.11° C | 81% | 1008 hPa | 0 mm | - | - | - |
| 1778032805 | 11.11° C | 81% | 1008 hPa | 0 mm | - | - | - |
| 1778032505 | 11.11° C | 82% | 1008.1 hPa | 0 mm | - | - | - |
| 1778031007 | 11.11° C | 83% | 1008.2 hPa | 0 mm | - | - | - |
| 1778030706 | 11.11° C | 82% | 1008.1 hPa | 0 mm | - | - | - |
| 1778018706 | 12.22° C | 84% | 1009 hPa | 0 mm | - | - | - |
| 1778015106 | 12.78° C | 89% | 1009.2 hPa | 0 mm | - | - | - |
| 1778008206 | 13.33° C | 88% | 1008.9 hPa | 0 mm | - | - | - |
| 1778007606 | 13.33° C | 88% | 1008.9 hPa | 0 mm | - | - | - |
| 1778007306 | 13.33° C | 88% | 1008.9 hPa | 0 mm | - | - | - |
| 1778006706 | 13.89° C | 87% | 1008.9 hPa | 0 mm | - | - | - |
* Rain latest hour (hover to see other rain measurements)
** Current wind speed in m/s (hover to see current wind gust speed)